Time;durP1;ratioP1;P1;durP2;ratioP2;P2;SDS_P1;SDS_P2;PMS_P1;PMS_P2;Temp;Humidity;BMP_temperature;BMP_pressure;BME280_temperature;BME280_humidity;BME280_pressure;Samples;Min_cycle;Max_cycle;Signal;HPM_P1;HPM_P2
2022/02/21 00:00:20;;;;;;;20.98;11.57;;;3.20;99.70;;;;;;4940240;29;20119;-89
2022/02/21 00:02:49;;;;;;;25.27;12.88;;;3.10;99.70;;;;;;4939973;29;20086;-90
2022/02/21 00:05:15;;;;;;;22.35;10.32;;;3.10;99.80;;;;;;4940285;29;20528;-89
2022/02/21 00:07:42;;;;;;;23.40;10.85;;;3.10;99.90;;;;;;4940163;29;20501;-89
2022/02/21 00:10:08;;;;;;;20.80;10.55;;;3.10;99.90;;;;;;4940002;29;20091;-90
2022/02/21 00:12:34;;;;;;;20.33;10.50;;;3.20;99.90;;;;;;4957135;29;20023;-89
2022/02/21 00:15:01;;;;;;;18.25;10.23;;;3.20;99.90;;;;;;4940119;29;20102;-89
2022/02/21 00:17:27;;;;;;;18.60;9.30;;;3.20;99.90;;;;;;4948195;28;20027;-89
2022/02/21 00:19:53;;;;;;;32.53;17.23;;;3.20;99.90;;;;;;4959100;28;20037;-90
2022/02/21 00:22:18;;;;;;;24.33;11.07;;;3.20;99.90;;;;;;4959149;28;20113;-89
2022/02/21 00:24:44;;;;;;;20.08;11.40;;;3.20;99.80;;;;;;4959237;28;20086;-89
2022/02/21 00:27:10;;;;;;;19.70;11.43;;;3.10;99.90;;;;;;4958997;28;20027;-89
2022/02/21 00:29:35;;;;;;;19.17;11.35;;;3.20;99.90;;;;;;4958991;28;20022;-89
2022/02/21 00:32:01;;;;;;;28.85;15.40;;;3.20;99.90;;;;;;4958859;28;20437;-89
2022/02/21 00:34:27;;;;;;;22.30;12.35;;;3.20;99.90;;;;;;4958035;28;20114;-89
2022/02/21 00:36:52;;;;;;;18.63;10.50;;;3.20;99.90;;;;;;4959056;28;20037;-89
2022/02/21 00:39:18;;;;;;;14.88;9.13;;;3.20;99.90;;;;;;4958832;28;20035;-90
2022/02/21 00:41:44;;;;;;;17.00;8.85;;;3.20;99.70;;;;;;4958784;28;20117;-90
2022/02/21 00:44:09;;;;;;;27.10;14.50;;;3.20;99.70;;;;;;4959042;28;20027;-90
2022/02/21 00:46:35;;;;;;;20.05;11.40;;;3.30;99.70;;;;;;4958713;28;20026;-89
2022/02/21 00:49:01;;;;;;;19.15;10.00;;;3.30;99.60;;;;;;4958705;28;20023;-89
2022/02/21 00:51:27;;;;;;;18.33;10.23;;;3.30;99.60;;;;;;4958558;28;20101;-89
2022/02/21 00:53:53;;;;;;;19.20;9.70;;;3.30;99.40;;;;;;4958701;28;20055;-89
2022/02/21 00:56:19;;;;;;;14.77;9.07;;;3.20;99.20;;;;;;4958628;28;20037;-89
2022/02/21 00:58:44;;;;;;;17.88;8.50;;;3.10;99.20;;;;;;4958662;28;20027;-89
2022/02/21 01:01:10;;;;;;;17.15;9.27;;;3.10;99.10;;;;;;4958664;28;20038;-89
2022/02/21 01:03:36;;;;;;;17.98;9.23;;;3.00;99.30;;;;;;4958313;28;20049;-89
2022/02/21 01:06:01;;;;;;;21.45;9.07;;;2.90;99.30;;;;;;4958364;28;20031;-89
2022/02/21 01:08:27;;;;;;;13.98;8.13;;;2.80;99.50;;;;;;4958674;28;20023;-89
2022/02/21 01:10:53;;;;;;;18.45;10.27;;;2.70;99.60;;;;;;4958365;28;20085;-89
2022/02/21 01:13:18;;;;;;;17.20;9.13;;;2.60;99.70;;;;;;4958378;28;20023;-89
2022/02/21 01:15:44;;;;;;;17.20;8.85;;;2.60;99.80;;;;;;4958273;28;20031;-89
2022/02/21 01:18:10;;;;;;;20.63;8.98;;;2.50;99.90;;;;;;4963346;28;20034;-89
2022/02/21 01:20:35;;;;;;;20.30;9.13;;;2.40;99.90;;;;;;4939160;29;20039;-89
2022/02/21 01:23:01;;;;;;;20.38;9.65;;;2.40;99.90;;;;;;4939280;29;20174;-89
2022/02/21 01:25:27;;;;;;;22.08;10.80;;;2.30;99.90;;;;;;4939183;29;20078;-89
2022/02/21 01:27:53;;;;;;;24.75;10.63;;;2.30;99.90;;;;;;4939183;29;20027;-90
2022/02/21 01:30:19;;;;;;;25.10;11.20;;;2.30;99.90;;;;;;4939298;29;20031;-90
2022/02/21 01:32:44;;;;;;;31.05;11.90;;;2.30;99.90;;;;;;4939047;29;20027;-90
2022/02/21 01:35:10;;;;;;;30.15;14.00;;;2.40;99.90;;;;;;4939013;29;20031;-90
2022/02/21 01:37:36;;;;;;;30.20;12.77;;;2.40;99.90;;;;;;4939090;29;20055;-90
2022/02/21 01:40:07;;;;;;;32.33;13.45;;;2.40;99.90;;;;;;4939013;29;20094;-89
2022/02/21 01:42:33;;;;;;;30.00;13.00;;;2.40;99.90;;;;;;4939299;29;20025;-90
2022/02/21 01:44:59;;;;;;;28.60;12.65;;;2.40;99.90;;;;;;4940215;29;20075;-89
2022/02/21 01:47:25;;;;;;;25.38;12.50;;;2.40;99.90;;;;;;4942991;29;20055;-89
2022/02/21 01:49:51;;;;;;;22.25;11.18;;;2.40;99.90;;;;;;4942769;29;20024;-89
2022/02/21 01:52:18;;;;;;;24.42;11.57;;;2.50;99.90;;;;;;4942863;29;20023;-89
2022/02/21 01:54:44;;;;;;;26.50;12.45;;;2.50;99.90;;;;;;4942540;29;20023;-89
2022/02/21 01:57:10;;;;;;;24.27;11.60;;;2.50;99.90;;;;;;4942490;29;20437;-89
2022/02/21 01:59:37;;;;;;;21.67;10.43;;;2.60;99.90;;;;;;4942719;29;20055;-89
2022/02/21 02:02:04;;;;;;;19.70;10.65;;;2.70;99.90;;;;;;4942564;28;20050;-89
2022/02/21 02:04:31;;;;;;;16.67;9.00;;;2.80;99.90;;;;;;4961574;28;20532;-89
2022/02/21 02:06:57;;;;;;;20.88;11.02;;;2.90;99.90;;;;;;4961585;28;20085;-89
2022/02/21 02:09:23;;;;;;;18.92;9.45;;;3.00;99.90;;;;;;4961766;28;20050;-90
2022/02/21 02:11:49;;;;;;;17.98;9.70;;;3.00;99.90;;;;;;4961511;28;20023;-89
2022/02/21 02:14:35;;;;;;;21.13;10.02;;;3.00;99.90;;;;;;4961586;28;20053;-89
2022/02/21 02:17:09;;;;;;;14.60;9.18;;;3.10;99.90;;;;;;4964614;28;20086;-90
2022/02/21 02:19:36;;;;;;;19.10;9.73;;;3.10;99.90;;;;;;5000390;28;20030;-89
2022/02/21 02:22:18;;;;;;;18.08;10.68;;;3.00;99.90;;;;;;5000163;28;20048;-89
2022/02/21 02:24:50;;;;;;;22.77;12.35;;;2.90;99.90;;;;;;5000256;28;20029;-89
2022/02/21 02:27:17;;;;;;;20.13;11.07;;;2.80;99.90;;;;;;5000213;28;20052;-89
2022/02/21 02:29:45;;;;;;;21.70;11.60;;;2.70;99.90;;;;;;5017328;28;20018;-89
2022/02/21 02:32:11;;;;;;;23.95;12.75;;;2.60;99.90;;;;;;4999906;28;20033;-89
2022/02/21 02:34:39;;;;;;;25.35;12.63;;;2.60;99.90;;;;;;4999844;28;20064;-89
2022/02/21 02:37:05;;;;;;;29.13;13.25;;;2.40;99.90;;;;;;5000084;28;20491;-89
2022/02/21 02:39:31;;;;;;;29.95;14.40;;;2.30;99.90;;;;;;4999840;28;20033;-89
2022/02/21 02:41:57;;;;;;;27.50;13.75;;;2.30;99.90;;;;;;4999819;28;20030;-89
2022/02/21 02:44:23;;;;;;;29.83;14.48;;;2.20;99.90;;;;;;4999727;28;20026;-90
2022/02/21 02:46:49;;;;;;;29.17;13.82;;;2.10;99.90;;;;;;4999538;28;20030;-89
2022/02/21 02:49:14;;;;;;;29.33;13.82;;;2.00;99.90;;;;;;4999460;28;20022;-89
2022/02/21 02:51:40;;;;;;;31.10;15.95;;;2.00;99.90;;;;;;4999438;28;20365;-89
2022/02/21 02:54:07;;;;;;;30.20;14.73;;;1.90;99.90;;;;;;4999443;28;20480;-89
2022/02/21 02:56:34;;;;;;;26.98;13.30;;;1.90;99.90;;;;;;4998378;28;20022;-88
2022/02/21 02:59:00;;;;;;;23.48;11.23;;;1.80;99.90;;;;;;4999405;28;20058;-89
2022/02/21 03:01:25;;;;;;;22.90;12.10;;;1.80;99.90;;;;;;4999361;28;20072;-88
2022/02/21 03:03:51;;;;;;;19.67;10.32;;;1.70;99.90;;;;;;4999212;28;20566;-89
2022/02/21 03:06:17;;;;;;;20.02;10.55;;;1.70;99.90;;;;;;4999257;28;20049;-89
2022/02/21 03:08:43;;;;;;;20.73;11.30;;;1.70;99.90;;;;;;4999229;28;20021;-89
2022/02/21 03:11:08;;;;;;;19.30;9.55;;;1.70;99.90;;;;;;5016619;28;20057;-89
2022/02/21 03:13:34;;;;;;;16.85;9.15;;;1.60;99.90;;;;;;4999232;28;20468;-89
2022/02/21 03:16:00;;;;;;;17.17;9.50;;;1.60;99.90;;;;;;4999180;28;20029;-89
2022/02/21 03:18:26;;;;;;;17.67;8.63;;;1.50;99.90;;;;;;5004760;28;20022;-88
2022/02/21 03:20:51;;;;;;;16.73;8.18;;;1.50;99.90;;;;;;4996925;28;20037;-89
2022/02/21 03:23:17;;;;;;;18.02;9.18;;;1.40;99.90;;;;;;4979625;28;20023;-89
2022/02/21 03:25:43;;;;;;;12.57;7.85;;;1.40;99.90;;;;;;4979490;28;20469;-88
2022/02/21 03:28:09;;;;;;;14.18;8.05;;;1.40;99.90;;;;;;4979290;28;20022;-89
2022/02/21 03:30:35;;;;;;;20.67;9.57;;;1.30;99.90;;;;;;4979289;28;20033;-88
2022/02/21 03:33:01;;;;;;;38.50;18.58;;;1.30;99.90;;;;;;4979239;28;20057;-89
2022/02/21 03:35:28;;;;;;;73.55;37.45;;;1.30;99.90;;;;;;4979250;28;20022;-89
2022/02/21 03:37:54;;;;;;;70.88;38.88;;;1.20;99.90;;;;;;4996562;28;20030;-89
2022/02/21 03:40:19;;;;;;;61.28;31.77;;;1.20;99.90;;;;;;4979143;28;20126;-89
2022/02/21 03:42:45;;;;;;;49.38;24.55;;;1.20;99.90;;;;;;4979334;28;20560;-89
2022/02/21 03:45:11;;;;;;;37.75;21.13;;;1.10;99.90;;;;;;4979169;28;20033;-88
2022/02/21 03:47:37;;;;;;;37.50;21.00;;;1.10;99.90;;;;;;4996561;28;20033;-89
2022/02/21 03:50:04;;;;;;;34.08;17.80;;;1.10;99.90;;;;;;4978879;28;20026;-88
2022/02/21 03:52:30;;;;;;;27.67;14.25;;;1.00;99.90;;;;;;4978944;28;20022;-88
2022/02/21 03:54:55;;;;;;;27.63;13.57;;;1.00;99.90;;;;;;4978910;28;20381;-88
2022/02/21 03:57:21;;;;;;;27.27;12.93;;;1.00;99.90;;;;;;4978844;28;20027;-88
2022/02/21 03:59:47;;;;;;;26.40;13.10;;;0.90;99.90;;;;;;4978731;28;20535;-88
2022/02/21 04:02:13;;;;;;;33.60;15.85;;;0.90;99.90;;;;;;4978466;28;20038;-88
2022/02/21 04:04:39;;;;;;;30.98;14.60;;;0.90;99.90;;;;;;4959559;28;20035;-88
2022/02/21 04:07:05;;;;;;;34.92;14.52;;;0.90;99.90;;;;;;4959697;28;20536;-88
2022/02/21 04:09:30;;;;;;;27.73;13.15;;;0.80;99.90;;;;;;4959149;28;20378;-88
2022/02/21 04:11:56;;;;;;;22.48;12.00;;;0.80;99.90;;;;;;4959324;28;20019;-88
2022/02/21 04:14:22;;;;;;;20.35;10.13;;;0.80;99.90;;;;;;4959143;28;20113;-88
2022/02/21 04:16:47;;;;;;;16.63;8.93;;;0.80;99.90;;;;;;4959174;28;20081;-88
2022/02/21 04:19:13;;;;;;;18.42;10.57;;;0.80;99.90;;;;;;4975742;28;20110;-88
2022/02/21 04:21:40;;;;;;;16.65;10.20;;;0.80;99.90;;;;;;4978302;28;20100;-88
2022/02/21 04:24:06;;;;;;;19.73;10.35;;;0.80;99.90;;;;;;4978369;28;20084;-88
2022/02/21 04:26:32;;;;;;;18.10;10.52;;;0.70;99.90;;;;;;4978519;28;20026;-88
2022/02/21 04:28:58;;;;;;;25.05;10.30;;;0.70;99.90;;;;;;4978423;28;20038;-89
2022/02/21 04:31:23;;;;;;;17.90;10.45;;;0.70;99.90;;;;;;4978299;28;20026;-88
2022/02/21 04:33:49;;;;;;;17.45;10.05;;;0.70;99.90;;;;;;4978324;28;20026;-89
2022/02/21 04:36:16;;;;;;;21.50;10.52;;;0.70;99.90;;;;;;4978050;28;20049;-88
2022/02/21 04:38:42;;;;;;;19.38;11.27;;;0.70;99.90;;;;;;4978257;28;20110;-89
2022/02/21 04:41:07;;;;;;;20.08;10.23;;;0.70;99.90;;;;;;4966236;28;20190;-88
2022/02/21 04:43:34;;;;;;;23.48;11.10;;;0.60;99.90;;;;;;4939612;29;20031;-88
2022/02/21 04:46:03;;;;;;;22.55;11.13;;;0.60;99.90;;;;;;4940026;29;20029;-89
2022/02/21 04:48:30;;;;;;;26.63;12.27;;;0.60;99.90;;;;;;4941123;29;20020;-89
2022/02/21 04:50:56;;;;;;;24.42;13.27;;;0.60;99.90;;;;;;4941805;29;20027;-88
2022/02/21 04:53:22;;;;;;;25.67;12.93;;;0.60;99.90;;;;;;4939591;29;20114;-88
2022/02/21 04:55:48;;;;;;;21.38;11.77;;;0.60;99.90;;;;;;4939619;29;20573;-88
2022/02/21 04:58:14;;;;;;;26.00;12.75;;;0.60;99.90;;;;;;4939358;29;20038;-88
2022/02/21 05:00:40;;;;;;;24.27;12.68;;;0.60;99.90;;;;;;4939206;29;20031;-90
2022/02/21 05:03:05;;;;;;;26.92;12.68;;;0.50;99.90;;;;;;4963391;28;20081;-90
2022/02/21 05:05:31;;;;;;;29.58;14.55;;;0.50;99.90;;;;;;4975363;28;20027;-90
2022/02/21 05:07:57;;;;;;;32.45;14.73;;;0.50;99.90;;;;;;4974896;28;20417;-90
2022/02/21 05:10:24;;;;;;;38.25;21.95;;;0.50;99.90;;;;;;4974867;28;20027;-89
2022/02/21 05:12:49;;;;;;;42.53;23.85;;;0.50;99.90;;;;;;4974581;28;20076;-90
2022/02/21 05:15:15;;;;;;;54.17;30.42;;;0.50;99.90;;;;;;4974654;28;20046;-90
2022/02/21 05:17:41;;;;;;;70.22;37.00;;;0.50;99.90;;;;;;4979967;28;20026;-90
2022/02/21 05:20:09;;;;;;;58.63;32.72;;;0.50;99.90;;;;;;4972135;28;20070;-89
2022/02/21 05:22:36;;;;;;;77.18;36.92;;;0.60;99.90;;;;;;4962314;28;20023;-89
2022/02/21 05:25:03;;;;;;;75.43;34.78;;;0.50;99.90;;;;;;4962240;28;20034;-90
2022/02/21 05:27:32;;;;;;;64.97;29.92;;;0.60;99.90;;;;;;4963160;28;20402;-89
2022/02/21 05:31:13;;;;;;;56.05;25.27;;;0.60;99.90;;;;;;4971738;28;20026;-90
2022/02/21 05:33:38;;;;;;;45.50;20.88;;;0.70;99.90;;;;;;4953421;28;20034;-89
2022/02/21 05:36:04;;;;;;;42.28;19.35;;;0.70;99.90;;;;;;4979601;28;20019;-89
2022/02/21 05:38:29;;;;;;;41.90;18.20;;;0.70;99.90;;;;;;4961947;28;20027;-90
2022/02/21 05:40:55;;;;;;;34.83;16.88;;;0.80;99.90;;;;;;4974667;28;20030;-90
2022/02/21 05:43:21;;;;;;;30.45;15.65;;;0.80;99.90;;;;;;4978455;28;20499;-89
2022/02/21 05:45:46;;;;;;;29.15;13.50;;;0.90;99.90;;;;;;4980618;28;20113;-90
2022/02/21 05:48:12;;;;;;;24.80;12.02;;;0.90;99.90;;;;;;4981248;28;20022;-90
2022/02/21 05:50:38;;;;;;;26.58;12.65;;;1.00;99.90;;;;;;4981145;28;20030;-90
2022/02/21 05:53:04;;;;;;;26.65;12.45;;;1.10;99.90;;;;;;4975483;28;20420;-90
2022/02/21 05:55:29;;;;;;;24.15;11.82;;;1.30;99.90;;;;;;4969784;28;20023;-90
2022/02/21 05:57:59;;;;;;;22.40;11.90;;;1.40;99.90;;;;;;4965780;28;20169;-90
2022/02/21 06:00:26;;;;;;;18.65;10.18;;;1.60;99.90;;;;;;4961474;28;20380;-89
2022/02/21 06:02:51;;;;;;;20.33;10.85;;;1.70;99.90;;;;;;4961524;28;20051;-90
2022/02/21 06:05:17;;;;;;;23.52;10.52;;;1.90;99.90;;;;;;4961201;28;20461;-90
2022/02/21 06:07:43;;;;;;;20.25;10.82;;;2.10;99.90;;;;;;4961458;28;20110;-89
2022/02/21 06:10:09;;;;;;;20.10;10.50;;;2.20;99.90;;;;;;4961424;28;20023;-89
2022/02/21 06:12:34;;;;;;;26.85;12.23;;;2.30;99.90;;;;;;4961377;28;20053;-89
2022/02/21 06:15:00;;;;;;;23.05;12.10;;;2.40;99.90;;;;;;4961381;28;20469;-90
2022/02/21 06:17:26;;;;;;;26.00;12.95;;;2.50;99.90;;;;;;4961711;28;20101;-90
2022/02/21 06:19:52;;;;;;;24.52;12.95;;;2.50;99.90;;;;;;4961250;28;20543;-90
2022/02/21 06:22:18;;;;;;;22.35;11.43;;;2.60;99.90;;;;;;4961154;28;20034;-90
2022/02/21 06:24:47;;;;;;;25.30;11.57;;;2.60;99.90;;;;;;4961475;28;20023;-89
2022/02/21 06:27:13;;;;;;;26.75;11.82;;;2.70;99.90;;;;;;4960379;28;20104;-89
2022/02/21 06:29:39;;;;;;;25.55;12.38;;;2.80;99.90;;;;;;4960937;28;20023;-90
2022/02/21 06:32:05;;;;;;;24.95;12.43;;;2.90;99.90;;;;;;4960916;28;20030;-90
2022/02/21 06:34:31;;;;;;;24.85;11.73;;;3.10;99.90;;;;;;4960870;28;20026;-90
2022/02/21 06:36:57;;;;;;;22.77;11.40;;;3.20;99.90;;;;;;4961328;28;20381;-90
2022/02/21 06:39:22;;;;;;;24.83;11.18;;;3.40;99.90;;;;;;4960691;28;20026;-91
2022/02/21 06:41:51;;;;;;;25.17;12.27;;;3.40;99.90;;;;;;4960784;28;20122;-90
2022/02/21 06:44:17;;;;;;;25.55;11.73;;;3.60;99.90;;;;;;4960628;28;20034;-91
2022/02/21 06:46:44;;;;;;;22.08;11.90;;;3.60;99.90;;;;;;4977910;28;20018;-89
2022/02/21 06:49:12;;;;;;;25.38;12.70;;;3.70;99.90;;;;;;5016876;28;20022;-90
2022/02/21 06:51:38;;;;;;;27.55;13.52;;;3.70;99.90;;;;;;5016786;28;20080;-90
2022/02/21 06:54:08;;;;;;;25.13;11.40;;;3.70;99.90;;;;;;4999218;28;20030;-90
2022/02/21 06:56:34;;;;;;;17.75;10.60;;;3.70;99.90;;;;;;4999176;28;20503;-90
2022/02/21 06:59:00;;;;;;;22.58;11.75;;;3.70;99.90;;;;;;4999390;28;20026;-90
2022/02/21 07:01:27;;;;;;;20.70;11.70;;;3.60;99.90;;;;;;4999058;28;20026;-90
2022/02/21 07:03:54;;;;;;;24.92;11.75;;;3.60;99.90;;;;;;4999210;28;20072;-90
2022/02/21 07:06:20;;;;;;;20.50;12.10;;;3.70;99.90;;;;;;4998988;28;20022;-90
2022/02/21 07:08:46;;;;;;;23.40;12.15;;;3.60;99.90;;;;;;4999360;28;20026;-89
2022/02/21 07:11:12;;;;;;;23.02;11.38;;;3.70;99.90;;;;;;4998818;28;20022;-90
2022/02/21 07:13:38;;;;;;;23.83;12.13;;;3.70;99.90;;;;;;4998869;28;20030;-90
2022/02/21 07:16:04;;;;;;;26.85;13.18;;;3.70;99.90;;;;;;4998995;28;20084;-90
2022/02/21 07:18:30;;;;;;;23.83;11.55;;;3.70;99.90;;;;;;4999194;28;20099;-90
2022/02/21 07:20:56;;;;;;;22.02;10.75;;;3.70;99.90;;;;;;4998785;28;20543;-91
2022/02/21 07:23:22;;;;;;;19.00;10.93;;;3.70;99.90;;;;;;4999202;28;20072;-90
2022/02/21 07:25:48;;;;;;;17.95;9.80;;;3.70;99.90;;;;;;4999024;28;20122;-90
2022/02/21 07:28:15;;;;;;;18.35;11.07;;;3.70;99.90;;;;;;4998700;28;20033;-91
2022/02/21 07:30:42;;;;;;;22.40;10.55;;;3.70;99.90;;;;;;4998792;28;20026;-90
2022/02/21 07:33:08;;;;;;;23.13;12.52;;;3.70;99.90;;;;;;4998817;28;20026;-90
2022/02/21 07:35:33;;;;;;;18.55;11.25;;;3.80;99.90;;;;;;4998525;28;20030;-91
2022/02/21 07:37:59;;;;;;;20.85;12.10;;;3.80;99.90;;;;;;4998424;28;20120;-90
2022/02/21 07:40:25;;;;;;;15.60;10.60;;;3.90;99.90;;;;;;4998396;28;20358;-91
2022/02/21 07:42:53;;;;;;;17.85;10.25;;;3.90;99.90;;;;;;4998205;28;20104;-90
2022/02/21 07:45:20;;;;;;;19.70;9.48;;;4.00;99.90;;;;;;4998689;28;20057;-89
2022/02/21 07:47:50;;;;;;;20.13;9.50;;;4.10;99.90;;;;;;4982503;28;20026;-90
2022/02/21 07:50:17;;;;;;;22.17;10.40;;;4.10;99.90;;;;;;4978806;28;20093;-91
2022/02/21 07:52:43;;;;;;;14.52;8.45;;;4.30;99.90;;;;;;4978706;28;20026;-90
2022/02/21 07:55:11;;;;;;;17.67;9.05;;;4.30;99.90;;;;;;4978778;28;20085;-90
2022/02/21 07:57:41;;;;;;;15.80;8.65;;;4.30;99.90;;;;;;4979096;28;20053;-90
2022/02/21 08:00:09;;;;;;;21.02;9.52;;;4.40;99.90;;;;;;4978612;28;20022;-90
2022/02/21 08:02:35;;;;;;;18.10;8.10;;;4.50;99.90;;;;;;4978406;28;20057;-91
2022/02/21 08:05:01;;;;;;;14.98;7.55;;;4.50;99.90;;;;;;4978543;28;20444;-90
2022/02/21 08:07:26;;;;;;;14.93;8.27;;;4.60;99.90;;;;;;4978699;28;20050;-90
2022/02/21 08:09:52;;;;;;;14.05;8.00;;;4.70;99.90;;;;;;4978621;28;20084;-91
2022/02/21 08:12:18;;;;;;;11.98;7.45;;;4.70;99.90;;;;;;4978322;28;20031;-89
2022/02/21 08:14:43;;;;;;;20.48;9.80;;;4.80;99.90;;;;;;4978535;28;20058;-89
2022/02/21 08:17:09;;;;;;;19.17;8.20;;;4.90;99.90;;;;;;4978330;28;20378;-91
2022/02/21 08:19:35;;;;;;;14.80;7.30;;;5.00;99.90;;;;;;4978725;28;20033;-90
2022/02/21 08:22:00;;;;;;;11.93;8.00;;;5.00;99.90;;;;;;4978324;28;20473;-90
2022/02/21 08:24:26;;;;;;;19.70;8.43;;;5.10;99.90;;;;;;4978273;28;20030;-89
2022/02/21 08:26:52;;;;;;;16.02;8.07;;;5.10;99.90;;;;;;4978104;28;20548;-90
2022/02/21 08:29:17;;;;;;;15.15;8.57;;;5.20;99.70;;;;;;4978111;28;20033;-89
2022/02/21 08:31:45;;;;;;;12.07;7.22;;;5.30;99.50;;;;;;4977802;28;20031;-91
2022/02/21 08:34:11;;;;;;;12.00;8.02;;;5.40;99.10;;;;;;4978148;28;20033;-90
2022/02/21 08:36:37;;;;;;;19.10;8.70;;;5.50;99.20;;;;;;4978197;28;20026;-91
2022/02/21 08:39:04;;;;;;;17.60;8.85;;;5.50;99.30;;;;;;4978268;28;20069;-90
2022/02/21 08:41:29;;;;;;;18.52;9.57;;;5.50;99.10;;;;;;4977997;28;20034;-91
2022/02/21 08:43:56;;;;;;;16.60;8.35;;;5.60;99.00;;;;;;4977882;28;20088;-91
2022/02/21 08:46:22;;;;;;;14.63;7.05;;;5.80;98.70;;;;;;4981002;28;20021;-90
2022/02/21 08:48:48;;;;;;;13.70;7.55;;;5.90;98.40;;;;;;4997423;28;20156;-90
2022/02/21 08:51:13;;;;;;;15.25;7.30;;;5.90;98.20;;;;;;4997542;28;20160;-91
2022/02/21 08:53:39;;;;;;;11.07;6.60;;;6.00;98.00;;;;;;4997313;28;20125;-90
2022/02/21 08:56:05;;;;;;;18.40;7.82;;;6.10;97.40;;;;;;4996522;28;20029;-90
2022/02/21 08:58:31;;;;;;;14.50;7.38;;;6.20;97.30;;;;;;4996959;28;20113;-91
2022/02/21 09:00:57;;;;;;;15.75;7.85;;;6.30;96.50;;;;;;4997397;28;20026;-90
2022/02/21 09:03:26;;;;;;;11.95;6.65;;;6.30;96.50;;;;;;4997439;28;20042;-89
2022/02/21 09:05:53;;;;;;;12.40;6.35;;;6.50;96.00;;;;;;4997257;28;20030;-89
2022/02/21 09:08:18;;;;;;;18.45;6.10;;;6.70;95.30;;;;;;4997168;28;20033;-96
2022/02/21 09:10:45;;;;;;;11.05;5.90;;;6.80;94.80;;;;;;4997005;28;20117;-90
2022/02/21 09:13:10;;;;;;;9.95;5.10;;;7.00;94.70;;;;;;4997444;28;20025;-90
2022/02/21 09:15:36;;;;;;;12.43;6.20;;;7.10;93.80;;;;;;4996793;28;20080;-90
2022/02/21 09:18:04;;;;;;;11.23;5.90;;;7.30;94.00;;;;;;4997137;28;20034;-89
2022/02/21 09:20:30;;;;;;;7.10;4.80;;;7.50;93.30;;;;;;4996965;28;20030;-90
2022/02/21 09:22:56;;;;;;;12.38;5.80;;;7.70;92.40;;;;;;4996824;28;20489;-89
2022/02/21 09:25:22;;;;;;;9.48;5.15;;;7.90;92.50;;;;;;4997118;28;20026;-91
2022/02/21 09:27:48;;;;;;;13.23;5.40;;;8.10;91.80;;;;;;4997600;28;20030;-90
2022/02/21 09:30:14;;;;;;;10.77;5.20;;;8.30;91.60;;;;;;4996927;28;20025;-91
2022/02/21 09:32:40;;;;;;;13.70;5.40;;;8.40;91.40;;;;;;4997563;28;20064;-89
2022/02/21 09:35:07;;;;;;;10.93;5.50;;;8.60;90.40;;;;;;4997037;28;20465;-91
2022/02/21 09:37:35;;;;;;;13.43;7.82;;;8.70;90.50;;;;;;4996787;28;20107;-90
2022/02/21 09:40:05;;;;;;;7.68;4.63;;;8.80;90.50;;;;;;4997023;28;20113;-91
2022/02/21 09:42:31;;;;;;;8.73;4.47;;;8.90;90.10;;;;;;4996784;28;20033;-90
2022/02/21 09:44:58;;;;;;;6.32;3.40;;;9.00;88.30;;;;;;4997288;28;20030;-90
2022/02/21 09:47:23;;;;;;;10.57;3.80;;;9.00;85.20;;;;;;4986908;28;20128;-90
2022/02/21 09:49:53;;;;;;;8.55;4.70;;;9.00;84.50;;;;;;4977617;28;20050;-90
2022/02/21 09:52:19;;;;;;;14.82;7.47;;;8.90;84.10;;;;;;4977668;28;20026;-92
2022/02/21 09:54:44;;;;;;;19.52;9.32;;;8.90;83.80;;;;;;4977710;28;20049;-91
2022/02/21 09:57:13;;;;;;;8.63;4.72;;;8.80;83.90;;;;;;4977545;28;20477;-91
2022/02/21 09:59:39;;;;;;;14.88;8.35;;;8.80;83.40;;;;;;4977915;28;20432;-92
2022/02/21 10:02:05;;;;;;;15.15;6.53;;;8.70;84.20;;;;;;4977418;28;20027;-92
2022/02/21 10:04:31;;;;;;;11.18;5.57;;;8.60;83.50;;;;;;4959829;28;20518;-92
2022/02/21 10:06:57;;;;;;;10.95;5.22;;;8.60;83.20;;;;;;4961626;28;20022;-91
2022/02/21 10:09:26;;;;;;;11.30;5.57;;;8.60;83.50;;;;;;4961646;28;20023;-91
2022/02/21 10:11:55;;;;;;;8.15;4.45;;;8.50;83.40;;;;;;4961642;28;20081;-91
2022/02/21 10:14:27;;;;;;;8.05;4.68;;;8.40;83.10;;;;;;4961904;28;20431;-93
2022/02/21 10:16:58;;;;;;;13.57;5.25;;;8.40;84.20;;;;;;4955985;28;20059;-91
2022/02/21 10:19:36;;;;;;;8.93;4.72;;;8.40;84.00;;;;;;4962095;28;20023;-91
2022/02/21 10:22:10;;;;;;;9.77;5.28;;;8.40;84.30;;;;;;4961376;28;20030;-89
2022/02/21 10:24:44;;;;;;;8.65;4.55;;;8.30;83.30;;;;;;4961178;28;20077;-89
2022/02/21 10:27:16;;;;;;;4.50;3.35;;;8.30;83.10;;;;;;4961319;28;20082;-89
2022/02/21 10:29:52;;;;;;;10.73;4.63;;;8.40;83.10;;;;;;4961068;28;20034;-89
2022/02/21 10:32:22;;;;;;;10.45;4.18;;;8.40;84.20;;;;;;4961095;28;20027;-88
2022/02/21 10:34:49;;;;;;;7.93;3.92;;;8.50;82.80;;;;;;4960841;28;20118;-89
2022/02/21 10:37:28;;;;;;;7.50;3.85;;;8.40;82.90;;;;;;4961210;28;20038;-91
2022/02/21 10:40:10;;;;;;;7.72;3.90;;;8.50;83.70;;;;;;4978765;28;20030;-93
2022/02/21 10:42:40;;;;;;;6.00;3.60;;;8.60;83.70;;;;;;4964977;28;20030;-96
2022/02/21 10:45:17;;;;;;;6.13;3.38;;;8.60;83.70;;;;;;4964507;28;20027;-92
2022/02/21 10:48:01;;;;;;;9.25;4.13;;;8.60;83.90;;;;;;4951314;29;20027;-91
2022/02/21 10:50:29;;;;;;;5.93;3.50;;;8.70;83.20;;;;;;4942990;29;20033;-95
2022/02/21 10:52:56;;;;;;;6.38;3.40;;;8.70;83.80;;;;;;4945815;29;20095;-96
2022/02/21 10:55:34;;;;;;;4.75;3.28;;;8.70;82.70;;;;;;4943823;29;20034;-92
2022/02/21 10:57:59;;;;;;;6.88;3.80;;;8.80;82.70;;;;;;4942091;29;20549;-94
2022/02/21 11:00:26;;;;;;;9.52;3.63;;;8.80;83.00;;;;;;4943287;29;20031;-95
2022/02/21 11:02:52;;;;;;;8.70;3.70;;;8.90;81.20;;;;;;4947095;28;20039;-95
2022/02/21 11:05:19;;;;;;;6.45;3.70;;;8.90;81.80;;;;;;4964522;28;20035;-95
2022/02/21 11:07:46;;;;;;;8.48;3.50;;;8.90;81.70;;;;;;4963894;28;20468;-93
2022/02/21 11:10:12;;;;;;;7.97;3.70;;;8.90;81.60;;;;;;4963575;28;20458;-93
2022/02/21 11:12:44;;;;;;;6.80;4.43;;;9.00;81.90;;;;;;4974899;28;20025;-96
2022/02/21 11:15:10;;;;;;;11.30;5.45;;;9.00;82.30;;;;;;4981949;28;20389;-96
2022/02/21 11:17:37;;;;;;;10.20;3.25;;;9.00;81.50;;;;;;4979515;28;20373;-92
2022/02/21 11:20:06;;;;;;;8.80;3.38;;;9.00;81.00;;;;;;4979631;28;20072;-92
2022/02/21 11:22:32;;;;;;;10.07;4.22;;;9.10;80.80;;;;;;4979452;28;20030;-91
2022/02/21 11:25:07;;;;;;;9.70;3.90;;;9.10;80.70;;;;;;4979705;28;20113;-94
2022/02/21 11:27:49;;;;;;;8.48;3.63;;;9.10;80.70;;;;;;4980195;28;20111;-94
2022/02/21 11:30:24;;;;;;;8.27;3.92;;;9.20;80.80;;;;;;4979208;28;20023;-93
2022/02/21 11:33:05;;;;;;;7.80;3.60;;;9.20;81.20;;;;;;4979209;28;20109;-93
2022/02/21 11:35:32;;;;;;;13.05;4.00;;;9.30;80.50;;;;;;4979392;28;20018;-92
2022/02/21 11:38:03;;;;;;;11.35;4.10;;;9.40;80.20;;;;;;4979956;28;20033;-92
2022/02/21 11:40:47;;;;;;;11.00;4.07;;;9.40;80.50;;;;;;4978958;28;20026;-93
2022/02/21 11:43:34;;;;;;;12.43;4.30;;;9.40;80.50;;;;;;4979294;28;20030;-90
2022/02/21 11:46:09;;;;;;;10.15;4.05;;;9.40;80.70;;;;;;4979546;28;20023;-90
2022/02/21 11:49:03;;;;;;;18.98;4.70;;;9.50;80.10;;;;;;4979352;28;20381;-90
2022/02/21 11:51:40;;;;;;;21.92;4.75;;;9.50;80.60;;;;;;4982024;28;20037;-92
2022/02/21 11:54:13;;;;;;;11.50;3.63;;;9.60;80.90;;;;;;4995957;28;20035;-90
2022/02/21 11:56:48;;;;;;;15.68;4.40;;;9.60;79.70;;;;;;4979141;28;20034;-89
2022/02/21 11:59:22;;;;;;;20.23;5.13;;;9.70;79.80;;;;;;4979413;28;20121;-93
2022/02/21 12:02:03;;;;;;;13.20;4.13;;;9.70;80.80;;;;;;4979351;28;20108;-88
2022/02/21 12:04:56;;;;;;;8.32;3.67;;;9.70;80.20;;;;;;4960111;28;20077;-91
2022/02/21 12:07:35;;;;;;;12.13;4.05;;;9.60;80.00;;;;;;4959267;28;20063;-88
2022/02/21 12:10:24;;;;;;;19.35;7.75;;;9.70;79.70;;;;;;4959251;28;20491;-89
2022/02/21 12:13:02;;;;;;;12.57;4.05;;;9.70;79.80;;;;;;4946655;29;20050;-89
2022/02/21 12:15:35;;;;;;;9.20;3.88;;;9.80;80.30;;;;;;4940056;29;20028;-90
2022/02/21 12:18:07;;;;;;;9.00;4.47;;;9.80;80.00;;;;;;4944731;28;20031;-90
2022/02/21 12:20:38;;;;;;;19.27;5.18;;;9.80;79.30;;;;;;4966838;28;20027;-89
2022/02/21 12:23:15;;;;;;;19.88;5.57;;;9.80;79.30;;;;;;4950472;28;20031;-90
2022/02/21 12:25:43;;;;;;;40.47;7.10;;;9.90;78.60;;;;;;4947198;28;20023;-90
2022/02/21 12:28:15;;;;;;;14.05;3.97;;;9.90;78.50;;;;;;4949376;28;20054;-89
2022/02/21 12:30:49;;;;;;;32.65;5.68;;;9.90;78.60;;;;;;4947067;29;20110;-92
2022/02/21 12:33:30;;;;;;;10.90;4.15;;;9.80;78.60;;;;;;4948073;28;20027;-88
2022/02/21 12:36:00;;;;;;;13.05;4.68;;;9.90;79.00;;;;;;4946883;28;20537;-89
2022/02/21 12:38:29;;;;;;;27.35;6.13;;;9.80;79.10;;;;;;4948483;28;20537;-88
2022/02/21 12:41:02;;;;;;;11.07;4.47;;;9.80;79.30;;;;;;4947729;28;20031;-91
2022/02/21 12:43:50;;;;;;;10.25;4.15;;;9.80;79.10;;;;;;4948346;28;20117;-89
2022/02/21 12:46:19;;;;;;;12.60;4.18;;;9.80;79.00;;;;;;4952524;28;20070;-88